Time;durP1;ratioP1;P1;durP2;ratioP2;P2;SDS_P1;SDS_P2;PMS_P1;PMS_P2;Temp;Humidity;BMP_temperature;BMP_pressure;BME280_temperature;BME280_humidity;BME280_pressure;Samples;Min_cycle;Max_cycle;Signal;HPM_P1;HPM_P2
2021/03/25 00:01:32;;;;;;;59.67;30.45;;;8.30;99.90;;;;;;5021256;28;20414;-78
2021/03/25 00:03:59;;;;;;;54.50;29.85;;;8.30;99.90;;;;;;5006628;28;20144;-77
2021/03/25 00:06:26;;;;;;;53.22;29.10;;;8.30;99.90;;;;;;5004283;28;20224;-77
2021/03/25 00:08:53;;;;;;;54.13;29.05;;;8.30;99.90;;;;;;5003142;28;20089;-76
2021/03/25 00:11:20;;;;;;;53.88;30.05;;;8.30;99.90;;;;;;5001990;28;20053;-76
2021/03/25 00:13:47;;;;;;;54.08;29.23;;;8.20;99.90;;;;;;5004106;28;20128;-76
2021/03/25 00:16:14;;;;;;;54.90;29.40;;;8.20;99.90;;;;;;5002838;28;20054;-76
2021/03/25 00:18:41;;;;;;;55.28;29.75;;;8.10;99.90;;;;;;5001972;28;20089;-78
2021/03/25 00:21:10;;;;;;;59.58;30.13;;;8.10;99.90;;;;;;5002361;28;20509;-78
2021/03/25 00:23:37;;;;;;;51.05;27.77;;;8.00;99.90;;;;;;5003154;28;20136;-78
2021/03/25 00:26:04;;;;;;;53.20;28.70;;;8.10;99.90;;;;;;5012549;28;20077;-77
2021/03/25 00:28:30;;;;;;;57.05;29.92;;;8.00;99.90;;;;;;5013160;28;20129;-78
2021/03/25 00:30:57;;;;;;;50.28;28.10;;;8.00;99.90;;;;;;5012896;28;20127;-78
2021/03/25 00:33:24;;;;;;;55.65;27.48;;;7.90;99.90;;;;;;5012702;28;20132;-78
2021/03/25 00:35:52;;;;;;;61.35;27.88;;;8.00;99.90;;;;;;5012713;28;20132;-78
2021/03/25 00:38:18;;;;;;;54.40;28.98;;;8.00;99.90;;;;;;5012767;28;20062;-78
2021/03/25 00:40:47;;;;;;;52.20;27.27;;;8.00;99.90;;;;;;5013091;28;20084;-78
2021/03/25 00:43:16;;;;;;;50.63;27.48;;;8.00;99.90;;;;;;5012894;28;20111;-77
2021/03/25 00:45:45;;;;;;;51.92;27.30;;;8.00;99.90;;;;;;5012462;28;20417;-77
2021/03/25 00:48:12;;;;;;;54.20;28.52;;;8.00;99.90;;;;;;5012777;28;20504;-78
2021/03/25 00:50:42;;;;;;;55.55;27.98;;;7.90;99.90;;;;;;5012926;28;20480;-78
2021/03/25 00:53:10;;;;;;;55.75;28.13;;;7.90;99.90;;;;;;5012974;28;20045;-77
2021/03/25 00:55:37;;;;;;;55.80;28.23;;;7.90;99.90;;;;;;5012574;28;20088;-78
2021/03/25 00:58:03;;;;;;;56.80;28.63;;;7.80;99.90;;;;;;5014643;28;20140;-78
2021/03/25 01:00:32;;;;;;;54.83;29.30;;;7.80;99.90;;;;;;5012402;28;20489;-77
2021/03/25 01:02:59;;;;;;;55.00;29.05;;;7.80;99.90;;;;;;5011890;28;20052;-77
2021/03/25 01:05:27;;;;;;;55.00;28.25;;;7.80;99.90;;;;;;5012279;28;20061;-76
2021/03/25 01:08:32;;;;;;;56.00;28.73;;;7.80;99.90;;;;;;5012367;28;20473;-77
2021/03/25 01:11:01;;;;;;;60.13;28.63;;;7.80;99.90;;;;;;5012441;28;20081;-78
2021/03/25 01:13:31;;;;;;;54.75;28.33;;;7.80;99.90;;;;;;5012284;28;20050;-77
2021/03/25 01:15:58;;;;;;;53.58;26.83;;;7.70;99.90;;;;;;5012743;28;20053;-76
2021/03/25 01:18:25;;;;;;;51.55;28.48;;;7.60;99.90;;;;;;5011885;28;20116;-77
2021/03/25 01:20:52;;;;;;;58.60;27.63;;;7.50;99.90;;;;;;5013034;28;20081;-77
2021/03/25 01:23:19;;;;;;;49.85;27.50;;;7.50;99.90;;;;;;5014896;28;20089;-77
2021/03/25 01:25:46;;;;;;;52.72;27.25;;;7.40;99.90;;;;;;5015397;28;20506;-76
2021/03/25 01:28:15;;;;;;;50.67;28.25;;;7.50;99.90;;;;;;5012699;28;20194;-77
2021/03/25 01:30:42;;;;;;;55.40;26.90;;;7.40;99.90;;;;;;5011867;28;20137;-75
2021/03/25 01:33:11;;;;;;;51.97;26.75;;;7.40;99.90;;;;;;5011826;28;20132;-76
2021/03/25 01:35:40;;;;;;;50.00;26.17;;;7.40;99.90;;;;;;5011601;28;20445;-76
2021/03/25 01:38:08;;;;;;;51.30;26.60;;;7.30;99.90;;;;;;5011288;28;20140;-76
2021/03/25 01:40:37;;;;;;;49.13;26.33;;;7.30;99.90;;;;;;5011823;28;20112;-77
2021/03/25 01:43:19;;;;;;;47.17;25.95;;;7.20;99.90;;;;;;5011485;28;20081;-77
2021/03/25 01:45:57;;;;;;;45.65;25.73;;;7.20;99.90;;;;;;5011444;28;20049;-76
2021/03/25 01:48:29;;;;;;;49.50;26.60;;;7.10;99.90;;;;;;5011331;28;20089;-76
2021/03/25 01:51:00;;;;;;;52.83;25.63;;;7.10;99.90;;;;;;5011577;28;20140;-77
2021/03/25 01:53:47;;;;;;;49.22;24.58;;;7.10;99.90;;;;;;5011499;28;20132;-76
2021/03/25 01:56:34;;;;;;;50.85;25.60;;;7.10;99.90;;;;;;5011540;28;20046;-76
2021/03/25 01:59:45;;;;;;;47.25;25.73;;;7.00;99.90;;;;;;5011697;28;20108;-77
2021/03/25 02:02:19;;;;;;;45.85;24.70;;;7.00;99.90;;;;;;4970192;28;20217;-77
2021/03/25 02:04:59;;;;;;;50.15;25.30;;;7.00;99.90;;;;;;4970196;28;20522;-77
2021/03/25 02:07:36;;;;;;;56.38;27.23;;;6.90;99.90;;;;;;4997635;28;20411;-77
2021/03/25 02:10:09;;;;;;;48.70;26.13;;;6.90;99.90;;;;;;5011848;28;20140;-77
2021/03/25 02:12:44;;;;;;;49.78;26.35;;;6.90;99.90;;;;;;5012020;28;20141;-77
2021/03/25 02:15:21;;;;;;;53.63;26.23;;;6.80;99.90;;;;;;5016326;28;20081;-77
2021/03/25 02:17:55;;;;;;;49.47;25.85;;;6.80;99.90;;;;;;5016276;28;20056;-78
2021/03/25 02:21:04;;;;;;;49.50;26.27;;;6.80;99.90;;;;;;5017943;28;20125;-76
2021/03/25 02:24:09;;;;;;;49.45;26.02;;;6.70;99.90;;;;;;4991703;28;20088;-77
2021/03/25 02:26:38;;;;;;;52.45;26.95;;;6.80;99.90;;;;;;5022466;28;20077;-75
2021/03/25 02:29:32;;;;;;;49.60;25.80;;;6.80;99.90;;;;;;5020353;28;20089;-77
2021/03/25 02:32:04;;;;;;;50.00;26.85;;;6.80;99.90;;;;;;5029012;28;20565;-76
2021/03/25 02:34:35;;;;;;;54.03;26.23;;;6.80;99.90;;;;;;5025289;28;20114;-76
2021/03/25 02:37:07;;;;;;;48.35;26.67;;;6.80;99.90;;;;;;5016157;28;20094;-76
2021/03/25 02:39:40;;;;;;;49.42;26.63;;;6.80;99.90;;;;;;5015576;28;20050;-76
2021/03/25 02:42:09;;;;;;;51.10;26.17;;;6.90;99.90;;;;;;5015196;28;20078;-76
2021/03/25 02:44:40;;;;;;;47.78;25.13;;;6.90;99.90;;;;;;5014941;28;20442;-76
2021/03/25 02:47:10;;;;;;;55.95;25.80;;;6.90;99.90;;;;;;5014992;28;20569;-76
2021/03/25 02:49:41;;;;;;;49.55;26.73;;;6.90;99.90;;;;;;5015376;28;20081;-76
2021/03/25 02:52:14;;;;;;;49.55;25.67;;;6.90;99.90;;;;;;5014938;28;20132;-77
2021/03/25 02:54:42;;;;;;;50.58;27.08;;;6.90;99.90;;;;;;5014859;28;20480;-77
2021/03/25 02:57:13;;;;;;;46.95;25.52;;;6.90;99.90;;;;;;5014367;28;20163;-77
2021/03/25 02:59:41;;;;;;;50.72;25.85;;;6.80;99.90;;;;;;5014853;28;20049;-77
2021/03/25 03:02:17;;;;;;;44.33;24.73;;;6.80;99.90;;;;;;5014502;28;20132;-76
2021/03/25 03:04:46;;;;;;;45.08;24.38;;;6.80;99.90;;;;;;5014540;28;20469;-76
2021/03/25 03:07:16;;;;;;;42.10;23.70;;;6.70;99.90;;;;;;5014250;28;20108;-76
2021/03/25 03:09:46;;;;;;;43.47;23.70;;;6.70;99.90;;;;;;5014328;28;20133;-76
2021/03/25 03:12:17;;;;;;;49.72;26.75;;;6.70;99.90;;;;;;5014460;28;20093;-76
2021/03/25 03:14:51;;;;;;;57.25;24.00;;;6.60;99.90;;;;;;5014301;28;20136;-76
2021/03/25 03:17:23;;;;;;;49.47;24.65;;;6.50;99.90;;;;;;5014122;28;20053;-77
2021/03/25 03:19:53;;;;;;;41.65;22.65;;;6.50;99.90;;;;;;5014354;28;20228;-77
2021/03/25 03:22:20;;;;;;;40.88;22.58;;;6.50;99.90;;;;;;5014411;28;20062;-77
2021/03/25 03:24:48;;;;;;;43.10;22.25;;;6.40;99.90;;;;;;5014436;28;20100;-78
2021/03/25 03:27:19;;;;;;;41.15;21.52;;;6.30;99.90;;;;;;5014748;28;20558;-78
2021/03/25 03:29:47;;;;;;;38.70;21.27;;;6.30;99.90;;;;;;5014840;28;20648;-79
2021/03/25 03:32:22;;;;;;;43.00;22.45;;;6.30;99.90;;;;;;5015089;28;20114;-79
2021/03/25 03:34:50;;;;;;;39.92;22.27;;;6.30;99.90;;;;;;5015555;28;20104;-79
2021/03/25 03:37:20;;;;;;;36.35;21.40;;;6.30;99.90;;;;;;5017015;28;20136;-79
2021/03/25 03:39:49;;;;;;;45.40;22.75;;;6.30;99.90;;;;;;5018453;28;20589;-79
2021/03/25 03:42:19;;;;;;;43.30;23.00;;;6.30;99.90;;;;;;5017636;28;20065;-78
2021/03/25 03:44:48;;;;;;;40.20;21.75;;;6.30;99.90;;;;;;5016365;28;20136;-79
2021/03/25 03:47:18;;;;;;;40.00;21.80;;;6.30;99.90;;;;;;5014544;28;20081;-78
2021/03/25 03:49:49;;;;;;;38.17;22.17;;;6.40;99.90;;;;;;5014633;28;20530;-78
2021/03/25 03:52:18;;;;;;;45.90;23.63;;;6.40;99.90;;;;;;5014771;28;20421;-78
2021/03/25 03:54:48;;;;;;;41.90;22.23;;;6.40;99.90;;;;;;5014969;28;20081;-78
2021/03/25 03:57:21;;;;;;;39.55;21.73;;;6.40;99.90;;;;;;5014337;28;20050;-78
2021/03/25 03:59:53;;;;;;;40.35;21.33;;;6.40;99.90;;;;;;5014817;28;20046;-78
2021/03/25 04:02:28;;;;;;;41.75;20.88;;;6.40;99.90;;;;;;5017774;28;20133;-78
2021/03/25 04:05:02;;;;;;;38.53;21.70;;;6.20;99.90;;;;;;5015122;28;20145;-78
2021/03/25 04:07:33;;;;;;;39.03;22.48;;;6.10;99.90;;;;;;5014184;28;20087;-77
2021/03/25 04:10:08;;;;;;;37.30;22.38;;;6.10;99.90;;;;;;5014330;28;20106;-78
2021/03/25 04:12:39;;;;;;;46.15;21.13;;;6.10;99.90;;;;;;5014981;28;20137;-78
2021/03/25 04:15:14;;;;;;;39.63;21.50;;;6.10;99.90;;;;;;5014522;28;20085;-78
2021/03/25 04:17:43;;;;;;;41.60;21.05;;;6.10;99.90;;;;;;5013896;28;20576;-78
2021/03/25 04:20:15;;;;;;;42.72;22.13;;;6.10;99.90;;;;;;5013242;28;20129;-78
2021/03/25 04:22:46;;;;;;;37.00;20.07;;;6.10;99.90;;;;;;5013077;28;20136;-78
2021/03/25 04:25:19;;;;;;;40.90;21.50;;;6.10;99.90;;;;;;5012788;28;20368;-78
2021/03/25 04:27:51;;;;;;;38.55;20.35;;;6.20;99.90;;;;;;5012928;28;20092;-77
2021/03/25 04:30:22;;;;;;;36.50;20.23;;;6.20;99.90;;;;;;5012904;28;20081;-78
2021/03/25 04:32:49;;;;;;;39.65;20.17;;;6.30;99.90;;;;;;5013039;28;20086;-78
2021/03/25 04:35:17;;;;;;;41.90;20.77;;;6.30;99.90;;;;;;5033868;23;20087;-75
2021/03/25 04:37:44;;;;;;;43.53;21.45;;;6.40;99.90;;;;;;4991272;28;20106;-76
2021/03/25 04:40:15;;;;;;;39.47;21.90;;;6.40;99.90;;;;;;4979608;28;20118;-76
2021/03/25 04:42:42;;;;;;;38.50;22.33;;;6.40;99.90;;;;;;4980013;28;20089;-76
2021/03/25 04:45:17;;;;;;;42.63;21.63;;;6.50;99.90;;;;;;4981427;28;20583;-76
2021/03/25 04:47:45;;;;;;;41.38;21.27;;;6.50;99.90;;;;;;4981417;28;20141;-76
2021/03/25 04:50:19;;;;;;;44.25;22.45;;;6.50;99.90;;;;;;4981479;28;20134;-76
2021/03/25 04:52:47;;;;;;;37.58;21.17;;;6.50;99.90;;;;;;4981860;28;20430;-76
2021/03/25 04:55:19;;;;;;;37.53;21.38;;;6.60;99.90;;;;;;4982010;28;20065;-76
2021/03/25 04:57:52;;;;;;;43.60;21.90;;;6.60;99.90;;;;;;4981198;28;20078;-76
2021/03/25 05:00:24;;;;;;;37.60;21.02;;;6.70;99.90;;;;;;4978912;28;20313;-77
2021/03/25 05:02:51;;;;;;;41.20;22.75;;;6.60;99.90;;;;;;4979014;28;20066;-77
2021/03/25 05:05:22;;;;;;;41.38;22.23;;;6.70;99.90;;;;;;4979295;28;20082;-76
2021/03/25 05:07:54;;;;;;;38.58;22.15;;;6.70;99.90;;;;;;4977938;28;20090;-76
2021/03/25 05:10:26;;;;;;;44.58;22.33;;;6.80;99.90;;;;;;4978419;28;20050;-76
2021/03/25 05:12:54;;;;;;;46.45;24.02;;;6.80;99.90;;;;;;4978595;28;20119;-76
2021/03/25 05:15:22;;;;;;;50.17;24.77;;;6.80;99.90;;;;;;4978692;28;20055;-77
2021/03/25 05:17:59;;;;;;;51.88;25.05;;;6.80;99.90;;;;;;4978667;28;20097;-77
2021/03/25 05:20:33;;;;;;;46.47;25.38;;;6.90;99.90;;;;;;4979221;28;20101;-76
2021/03/25 05:23:08;;;;;;;46.65;24.73;;;6.90;99.90;;;;;;4977617;28;20134;-77
2021/03/25 05:25:39;;;;;;;46.53;23.50;;;7.00;99.90;;;;;;4976999;28;20189;-76
2021/03/25 05:28:12;;;;;;;44.35;24.75;;;7.00;99.90;;;;;;4976572;28;20089;-76
2021/03/25 05:30:40;;;;;;;54.80;25.50;;;7.10;99.90;;;;;;4976935;28;20061;-77
2021/03/25 05:33:10;;;;;;;43.40;25.38;;;7.10;99.90;;;;;;4977357;28;20403;-77
2021/03/25 05:35:40;;;;;;;49.83;26.15;;;7.10;99.90;;;;;;4976387;28;20054;-77
2021/03/25 05:38:07;;;;;;;45.80;26.02;;;7.10;99.90;;;;;;4976025;28;20104;-77
2021/03/25 05:40:38;;;;;;;50.25;27.80;;;7.20;99.90;;;;;;4976052;28;20054;-77
2021/03/25 05:43:36;;;;;;;55.85;28.40;;;7.10;99.90;;;;;;4976150;28;20058;-77
2021/03/25 05:46:09;;;;;;;60.63;29.63;;;7.10;99.90;;;;;;4975857;28;20051;-77
2021/03/25 05:49:01;;;;;;;;;;;7.00;99.90;;;;;;4976174;28;20086;-77
2021/03/25 05:51:36;;;;;;;71.22;35.00;;;7.00;99.90;;;;;;4976617;28;19929;-77
2021/03/25 05:54:18;;;;;;;72.13;39.13;;;7.00;99.90;;;;;;4975799;28;20133;-77
2021/03/25 05:57:00;;;;;;;76.13;42.72;;;7.00;99.90;;;;;;4975760;28;20138;-77
2021/03/25 05:59:31;;;;;;;89.85;46.20;;;7.00;99.90;;;;;;4977744;28;20050;-77
2021/03/25 06:02:05;;;;;;;97.75;49.17;;;7.10;99.90;;;;;;4976868;28;20526;-78
2021/03/25 06:04:33;;;;;;;102.85;53.10;;;7.10;99.90;;;;;;4976368;28;20134;-77
2021/03/25 06:07:20;;;;;;;96.57;52.92;;;7.10;99.90;;;;;;4976490;28;20129;-77
2021/03/25 06:09:58;;;;;;;104.00;54.30;;;7.10;99.90;;;;;;4975769;28;20057;-78
2021/03/25 06:12:35;;;;;;;98.00;54.78;;;7.20;99.90;;;;;;4975814;28;20102;-77
2021/03/25 06:15:17;;;;;;;104.55;57.88;;;7.20;99.90;;;;;;4976755;28;20133;-77
2021/03/25 06:18:02;;;;;;;91.85;54.80;;;7.20;99.90;;;;;;4978268;28;20134;-77
2021/03/25 06:20:58;;;;;;;99.28;54.50;;;7.30;99.90;;;;;;4979581;28;20460;-76
2021/03/25 06:23:33;;;;;;;99.63;54.30;;;7.30;99.90;;;;;;4979707;28;20055;-76
2021/03/25 06:26:22;;;;;;;103.22;55.30;;;7.30;99.90;;;;;;4977611;28;20051;-76
2021/03/25 06:28:51;;;;;;;100.35;54.80;;;7.40;99.90;;;;;;4975327;28;20110;-75
2021/03/25 06:31:40;;;;;;;102.88;59.25;;;7.40;99.90;;;;;;4975953;28;20055;-77
2021/03/25 06:34:15;;;;;;;94.95;54.00;;;7.50;99.90;;;;;;4974852;28;20058;-77
2021/03/25 06:36:48;;;;;;;98.35;56.83;;;7.50;99.90;;;;;;4977401;28;20093;-78
2021/03/25 06:39:30;;;;;;;112.28;54.45;;;7.50;99.90;;;;;;4980663;28;20417;-78
2021/03/25 06:42:04;;;;;;;107.35;55.15;;;7.50;99.90;;;;;;4980185;28;20050;-79
2021/03/25 06:44:38;;;;;;;104.28;54.95;;;7.50;99.90;;;;;;4979582;28;20055;-78
2021/03/25 06:47:11;;;;;;;110.38;56.70;;;7.50;99.90;;;;;;4980642;28;20051;-79
2021/03/25 06:49:44;;;;;;;118.05;57.03;;;7.60;99.90;;;;;;4979512;28;20122;-79
2021/03/25 06:52:24;;;;;;;116.43;57.63;;;7.60;99.90;;;;;;4979898;28;20089;-79
2021/03/25 06:54:54;;;;;;;102.35;56.05;;;7.60;99.90;;;;;;4977851;28;20050;-79
2021/03/25 06:57:23;;;;;;;96.65;56.25;;;7.70;99.90;;;;;;4978179;28;20066;-79
2021/03/25 06:59:55;;;;;;;109.68;56.47;;;7.80;99.90;;;;;;4977913;28;20074;-78
2021/03/25 07:02:26;;;;;;;94.93;55.67;;;7.90;99.90;;;;;;4980536;28;20109;-78
2021/03/25 07:04:56;;;;;;;104.38;57.13;;;7.90;99.90;;;;;;4980938;28;20050;-78
2021/03/25 07:07:25;;;;;;;117.45;57.75;;;8.00;99.90;;;;;;4980772;28;20058;-78
2021/03/25 07:09:53;;;;;;;109.38;56.55;;;8.10;99.90;;;;;;4980718;28;20126;-79
2021/03/25 07:12:22;;;;;;;98.93;56.40;;;8.20;99.90;;;;;;4980483;28;20078;-78
2021/03/25 07:14:50;;;;;;;102.57;55.85;;;8.20;99.90;;;;;;4981463;28;20137;-78
2021/03/25 07:17:23;;;;;;;103.95;54.97;;;8.30;99.90;;;;;;4978509;28;20134;-78
2021/03/25 07:19:54;;;;;;;92.32;53.70;;;8.40;99.90;;;;;;4980185;28;20558;-78
2021/03/25 07:22:22;;;;;;;93.18;53.38;;;8.50;99.90;;;;;;4980436;28;20054;-77
2021/03/25 07:24:49;;;;;;;97.28;55.33;;;8.60;99.90;;;;;;4978379;28;20046;-78
2021/03/25 07:27:21;;;;;;;93.80;53.80;;;8.70;99.90;;;;;;4980360;28;20137;-78
2021/03/25 07:29:59;;;;;;;96.70;54.25;;;8.90;99.90;;;;;;4981218;28;20070;-78
2021/03/25 07:32:34;;;;;;;90.97;51.58;;;9.10;99.90;;;;;;4978214;28;20055;-76
2021/03/25 07:35:12;;;;;;;84.60;50.35;;;9.30;99.90;;;;;;4981116;28;20062;-78
2021/03/25 07:37:42;;;;;;;85.88;50.60;;;9.70;99.90;;;;;;4978352;28;20142;-79
2021/03/25 07:40:24;;;;;;;82.30;50.70;;;10.00;99.90;;;;;;4983480;28;20107;-79
2021/03/25 07:42:51;;;;;;;83.40;51.83;;;10.30;99.90;;;;;;4980730;28;20152;-78
2021/03/25 07:45:25;;;;;;;79.75;49.30;;;10.40;99.90;;;;;;4980170;28;20053;-77
2021/03/25 07:47:54;;;;;;;81.80;48.97;;;10.60;99.90;;;;;;4979347;28;20057;-78
2021/03/25 07:50:25;;;;;;;84.03;48.50;;;10.80;99.90;;;;;;4985598;28;20058;-78
2021/03/25 07:52:52;;;;;;;75.38;47.72;;;11.00;99.90;;;;;;4992149;28;20058;-78
2021/03/25 07:55:27;;;;;;;73.10;47.03;;;11.10;99.90;;;;;;4988005;28;20550;-78
2021/03/25 07:57:56;;;;;;;72.60;45.95;;;11.30;99.90;;;;;;4977058;28;20054;-77
2021/03/25 08:00:29;;;;;;;73.80;47.45;;;11.20;99.90;;;;;;4979332;28;20555;-79
2021/03/25 08:03:13;;;;;;;85.80;46.92;;;11.20;99.90;;;;;;4980883;28;20097;-78
2021/03/25 08:05:40;;;;;;;69.38;44.97;;;11.30;99.90;;;;;;4978133;28;20082;-77
2021/03/25 08:08:19;;;;;;;70.45;45.17;;;11.40;99.90;;;;;;4977499;28;20138;-77
2021/03/25 08:10:47;;;;;;;76.35;46.25;;;11.30;99.90;;;;;;4978030;28;20133;-78
2021/03/25 08:13:19;;;;;;;74.95;47.22;;;11.30;99.90;;;;;;4978701;28;20574;-78
2021/03/25 08:15:47;;;;;;;76.38;47.42;;;11.40;99.90;;;;;;4979233;28;20406;-78
2021/03/25 08:18:24;;;;;;;73.97;45.83;;;11.50;99.90;;;;;;4979546;28;20065;-79
2021/03/25 08:20:59;;;;;;;80.30;47.92;;;11.70;99.90;;;;;;4979428;28;20175;-78
2021/03/25 08:23:47;;;;;;;73.45;46.10;;;11.90;99.90;;;;;;4979801;28;20138;-79
2021/03/25 08:26:20;;;;;;;68.93;45.58;;;12.00;99.90;;;;;;4976762;28;20059;-78
2021/03/25 08:29:02;;;;;;;74.97;45.42;;;12.20;99.90;;;;;;4977294;28;20149;-79
2021/03/25 08:31:35;;;;;;;72.88;46.75;;;12.40;99.90;;;;;;4977145;28;20051;-79
2021/03/25 08:34:36;;;;;;;72.18;44.92;;;12.40;99.90;;;;;;4977323;28;20046;-79
2021/03/25 08:37:16;;;;;;;71.57;46.53;;;12.40;99.90;;;;;;4982463;28;20189;-79
2021/03/25 08:39:49;;;;;;;72.82;45.35;;;12.40;99.90;;;;;;4983074;28;20043;-79
2021/03/25 08:42:25;;;;;;;66.90;44.10;;;12.30;99.90;;;;;;4984037;28;20085;-79
2021/03/25 08:45:06;;;;;;;72.22;44.38;;;12.40;99.90;;;;;;4981698;28;20089;-80
2021/03/25 08:47:40;;;;;;;70.35;42.55;;;12.50;99.90;;;;;;4980541;28;20082;-80
2021/03/25 08:50:26;;;;;;;71.75;44.28;;;12.90;99.90;;;;;;4979639;28;20051;-79
2021/03/25 08:52:54;;;;;;;70.68;42.25;;;13.20;99.90;;;;;;4976071;28;20519;-79
2021/03/25 08:55:25;;;;;;;66.38;42.05;;;13.30;99.90;;;;;;4978681;28;20466;-78
2021/03/25 08:57:56;;;;;;;67.72;43.33;;;13.60;99.90;;;;;;4975342;28;20141;-79
2021/03/25 09:00:27;;;;;;;67.95;43.33;;;13.80;99.90;;;;;;4975846;28;20467;-79
2021/03/25 09:02:56;;;;;;;68.68;42.78;;;14.10;99.90;;;;;;4976090;28;20061;-79
2021/03/25 09:05:27;;;;;;;65.18;42.60;;;14.10;99.90;;;;;;4975869;28;20146;-78
2021/03/25 09:07:54;;;;;;;60.53;41.55;;;14.30;99.90;;;;;;4977232;28;20527;-78
2021/03/25 09:10:33;;;;;;;61.95;41.05;;;14.60;99.90;;;;;;4980045;28;20081;-80
2021/03/25 09:13:00;;;;;;;62.22;41.35;;;14.90;99.90;;;;;;4980668;28;20051;-79
2021/03/25 09:15:27;;;;;;;55.30;38.70;;;15.00;99.90;;;;;;4979845;28;20055;-79
2021/03/25 09:17:58;;;;;;;65.97;42.92;;;14.70;99.90;;;;;;4979893;28;20145;-79
2021/03/25 09:20:30;;;;;;;66.60;45.30;;;14.70;99.90;;;;;;4979304;28;20082;-78
2021/03/25 09:22:58;;;;;;;66.80;44.90;;;14.60;99.90;;;;;;4979889;28;20059;-79
2021/03/25 09:25:38;;;;;;;67.20;46.85;;;14.50;99.90;;;;;;4979664;28;20058;-80
2021/03/25 09:28:08;;;;;;;72.47;47.08;;;14.30;99.90;;;;;;4977327;28;20522;-80
2021/03/25 09:30:39;;;;;;;73.35;46.30;;;14.20;99.90;;;;;;4979512;28;20130;-79
2021/03/25 09:33:36;;;;;;;65.10;44.30;;;14.30;99.90;;;;;;4979404;28;20530;-79
2021/03/25 09:36:23;;;;;;;72.28;45.80;;;14.40;99.90;;;;;;4979757;28;20063;-77
2021/03/25 09:38:52;;;;;;;70.88;46.17;;;14.50;99.90;;;;;;4980360;28;20170;-79
2021/03/25 09:41:19;;;;;;;62.95;44.75;;;14.50;99.90;;;;;;4980478;28;20042;-79
2021/03/25 09:43:46;;;;;;;66.60;44.28;;;14.50;99.90;;;;;;4981922;28;20484;-79
2021/03/25 09:46:29;;;;;;;70.32;44.05;;;14.60;99.90;;;;;;4981424;28;20082;-78
2021/03/25 09:49:13;;;;;;;71.05;47.00;;;14.70;99.90;;;;;;4982595;28;20177;-79
2021/03/25 09:51:40;;;;;;;70.90;48.88;;;14.70;99.90;;;;;;4981010;28;20074;-79
2021/03/25 09:54:20;;;;;;;74.47;48.70;;;14.70;99.90;;;;;;4979501;28;20133;-80
2021/03/25 09:56:46;;;;;;;77.40;47.53;;;14.70;99.90;;;;;;4979548;28;20082;-80
2021/03/25 09:59:47;;;;;;;67.40;45.15;;;14.60;99.90;;;;;;4980428;28;20082;-79
2021/03/25 10:02:34;;;;;;;75.70;49.95;;;14.40;99.90;;;;;;4979539;28;20128;-79
2021/03/25 10:05:17;;;;;;;74.00;49.13;;;14.40;99.90;;;;;;4979993;28;20134;-78
2021/03/25 10:07:43;;;;;;;;;;;14.30;99.90;;;;;;4980740;28;20137;-80
2021/03/25 10:10:35;;;;;;;71.80;46.92;;;14.30;99.90;;;;;;4981517;28;19958;-78
2021/03/25 10:13:33;;;;;;;68.80;42.97;;;14.20;99.90;;;;;;4982530;28;20082;-79
2021/03/25 10:16:01;;;;;;;62.35;42.25;;;14.20;99.90;;;;;;4980565;28;20094;-80
2021/03/25 10:19:00;;;;;;;59.72;39.53;;;14.20;99.90;;;;;;4981788;28;20058;-78
2021/03/25 10:22:01;;;;;;;58.60;38.15;;;14.20;99.90;;;;;;4987515;28;20125;-78
2021/03/25 10:24:40;;;;;;;54.83;33.50;;;14.20;99.90;;;;;;4986650;28;20061;-78
2021/03/25 10:27:22;;;;;;;50.15;34.22;;;14.20;99.90;;;;;;4981171;28;20474;-79
2021/03/25 10:29:49;;;;;;;57.28;36.72;;;14.20;99.90;;;;;;4981795;28;20372;-78
2021/03/25 10:32:23;;;;;;;64.80;38.67;;;14.20;99.90;;;;;;4981001;28;20138;-79
2021/03/25 10:34:56;;;;;;;60.13;37.10;;;14.30;99.90;;;;;;4982642;28;20137;-80
2021/03/25 10:37:32;;;;;;;59.30;37.60;;;14.40;99.90;;;;;;5003255;23;20112;-75
2021/03/25 10:40:03;;;;;;;56.67;37.95;;;14.50;99.90;;;;;;4995917;28;20047;-75
2021/03/25 10:42:32;;;;;;;60.17;39.92;;;14.50;99.90;;;;;;4996192;28;20085;-74
2021/03/25 10:45:18;;;;;;;57.72;40.47;;;14.60;99.90;;;;;;4995823;28;20097;-75
2021/03/25 10:47:53;;;;;;;60.90;39.90;;;14.60;99.90;;;;;;4995346;28;20081;-74
2021/03/25 10:50:24;;;;;;;64.00;41.50;;;14.50;99.90;;;;;;4992923;28;20479;-76
2021/03/25 10:52:51;;;;;;;61.97;43.28;;;14.50;99.90;;;;;;4971637;28;20126;-75
2021/03/25 10:55:25;;;;;;;65.45;44.30;;;14.60;99.90;;;;;;4973344;28;20050;-77
2021/03/25 10:57:53;;;;;;;64.57;43.80;;;14.70;99.90;;;;;;4975916;28;20463;-74
2021/03/25 11:00:26;;;;;;;62.63;43.97;;;14.90;99.90;;;;;;4973371;28;20496;-75
2021/03/25 11:02:52;;;;;;;66.72;45.30;;;15.00;99.90;;;;;;4976330;28;20138;-76
2021/03/25 11:05:22;;;;;;;60.53;41.03;;;15.10;99.90;;;;;;4976224;28;20055;-75
2021/03/25 11:07:50;;;;;;;58.95;37.20;;;15.20;99.90;;;;;;4975831;28;20057;-75
2021/03/25 11:10:21;;;;;;;52.28;36.90;;;15.10;99.90;;;;;;4975914;28;20082;-75
2021/03/25 11:12:54;;;;;;;50.55;33.65;;;15.10;99.90;;;;;;4975579;28;20058;-75
2021/03/25 11:15:22;;;;;;;50.25;34.45;;;14.90;99.90;;;;;;4975648;28;20546;-75
2021/03/25 11:17:49;;;;;;;55.92;37.47;;;14.70;99.90;;;;;;4975380;28;20155;-75
2021/03/25 11:20:19;;;;;;;53.88;34.65;;;14.70;99.90;;;;;;4969910;28;20134;-76
2021/03/25 11:22:47;;;;;;;48.92;32.72;;;14.90;99.90;;;;;;4974822;28;20112;-75
2021/03/25 11:25:17;;;;;;;45.72;32.03;;;14.90;99.90;;;;;;4982824;28;20057;-75
2021/03/25 11:27:44;;;;;;;43.08;29.83;;;15.00;99.90;;;;;;4972763;28;20050;-75
2021/03/25 11:30:28;;;;;;;39.60;27.60;;;15.10;99.90;;;;;;4969562;28;20079;-72
2021/03/25 11:32:54;;;;;;;40.35;27.90;;;15.10;99.90;;;;;;4965950;28;20059;-73
2021/03/25 11:35:30;;;;;;;37.08;23.42;;;15.20;99.90;;;;;;4989452;28;20410;-76
2021/03/25 11:38:16;;;;;;;37.42;25.48;;;15.10;99.90;;;;;;4955796;28;20083;-74
2021/03/25 11:40:44;;;;;;;36.20;25.67;;;15.10;99.90;;;;;;4956063;28;20078;-75
2021/03/25 11:43:12;;;;;;;34.15;24.67;;;15.10;99.90;;;;;;4954941;28;20460;-75
2021/03/25 11:45:43;;;;;;;43.80;25.45;;;15.10;99.90;;;;;;4958416;28;20127;-75
2021/03/25 11:48:25;;;;;;;42.53;27.52;;;15.10;99.90;;;;;;4972535;28;20057;-77
2021/03/25 11:50:53;;;;;;;41.80;27.08;;;15.10;99.90;;;;;;4969668;28;20047;-76
2021/03/25 11:53:33;;;;;;;38.47;24.20;;;15.20;99.90;;;;;;4975213;28;20123;-75
2021/03/25 11:56:00;;;;;;;36.53;24.75;;;15.20;99.90;;;;;;4972144;28;20117;-74
2021/03/25 11:58:27;;;;;;;40.58;25.27;;;15.20;99.90;;;;;;4964896;28;20482;-75
2021/03/25 12:01:04;;;;;;;40.63;26.98;;;15.10;99.90;;;;;;4964403;28;20181;-75
2021/03/25 12:03:46;;;;;;;39.25;26.75;;;15.10;99.90;;;;;;4964848;28;20122;-75
2021/03/25 12:06:21;;;;;;;38.15;26.92;;;15.00;99.90;;;;;;4970685;28;20054;-76
2021/03/25 12:09:04;;;;;;;39.92;26.40;;;15.10;99.90;;;;;;4955361;28;20087;-75
2021/03/25 12:11:33;;;;;;;48.55;27.77;;;15.20;99.90;;;;;;4962174;28;20127;-75
2021/03/25 12:14:00;;;;;;;40.08;25.05;;;15.20;99.90;;;;;;4965021;28;20150;-75
2021/03/25 12:16:26;;;;;;;34.42;23.65;;;15.40;99.90;;;;;;4970150;28;20050;-75
2021/03/25 12:18:57;;;;;;;38.80;23.15;;;15.60;99.90;;;;;;4967071;28;20055;-74
2021/03/25 12:21:24;;;;;;;29.65;22.15;;;15.70;99.90;;;;;;4971902;28;20043;-75
2021/03/25 12:23:54;;;;;;;34.25;22.45;;;15.60;99.90;;;;;;4977034;28;20057;-76
2021/03/25 12:26:20;;;;;;;34.88;21.92;;;15.60;99.90;;;;;;4965612;28;20058;-74
2021/03/25 12:28:47;;;;;;;33.67;21.38;;;15.60;99.90;;;;;;4968499;28;20105;-76
2021/03/25 12:31:15;;;;;;;31.10;21.15;;;15.60;99.90;;;;;;4966038;28;20048;-76
2021/03/25 12:33:42;;;;;;;33.08;19.55;;;15.70;99.90;;;;;;4969405;28;20050;-75
2021/03/25 12:36:09;;;;;;;36.55;22.13;;;15.60;99.90;;;;;;4976405;28;20051;-76
2021/03/25 12:38:36;;;;;;;31.45;21.73;;;15.70;99.90;;;;;;4973923;28;20057;-76
2021/03/25 12:41:03;;;;;;;31.60;21.17;;;15.70;99.90;;;;;;4960146;28;20146;-74
2021/03/25 12:43:31;;;;;;;26.38;19.67;;;15.70;99.90;;;;;;4954638;28;20143;-74
2021/03/25 12:46:01;;;;;;;30.58;18.98;;;15.60;99.90;;;;;;4954456;28;20512;-74
2021/03/25 12:48:30;;;;;;;28.92;18.92;;;15.60;99.90;;;;;;4954515;28;20134;-75
2021/03/25 12:50:57;;;;;;;25.40;16.35;;;15.60;99.90;;;;;;4954286;28;20101;-74
2021/03/25 12:53:25;;;;;;;24.05;14.68;;;15.50;99.90;;;;;;4956076;28;20126;-75
2021/03/25 12:55:52;;;;;;;23.33;16.33;;;15.50;99.90;;;;;;4963002;28;20110;-74
2021/03/25 12:58:22;;;;;;;25.50;17.30;;;15.40;99.90;;;;;;4953664;28;20138;-74
2021/03/25 13:00:49;;;;;;;31.98;21.23;;;15.40;99.90;;;;;;4954187;28;20047;-75
2021/03/25 13:03:16;;;;;;;30.02;20.70;;;15.40;99.90;;;;;;4953895;28;20051;-75